Time;durP1;ratioP1;P1;durP2;ratioP2;P2;SDS_P1;SDS_P2;PMS_P1;PMS_P2;Temp;Humidity;BMP_temperature;BMP_pressure;BME280_temperature;BME280_humidity;BME280_pressure;Samples;Min_cycle;Max_cycle;Signal;HPM_P1;HPM_P2
2022/10/14 00:01:17;;;;;;;;;;;13.90;89.30;;;;;;5032833;28;19936;-87
2022/10/14 00:03:43;;;;;;;;;;;13.70;88.70;;;;;;5014927;28;20058;-87
2022/10/14 00:06:11;;;;;;;;;;;13.70;89.40;;;;;;5032837;28;19948;-87
2022/10/14 00:08:37;;;;;;;;;;;13.70;89.10;;;;;;5032612;28;20070;-87
2022/10/14 00:11:03;;;;;;;;;;;13.70;88.90;;;;;;5032772;28;19977;-87
2022/10/14 00:13:29;;;;;;;;;;;13.60;89.10;;;;;;5032720;28;19948;-87
2022/10/14 00:15:55;;;;;;;;;;;13.60;89.50;;;;;;5032714;28;20006;-87
2022/10/14 00:18:20;;;;;;;;;;;13.50;89.20;;;;;;5032648;28;20409;-87
2022/10/14 00:20:55;;;;;;;;;;;13.50;89.50;;;;;;5032667;28;19995;-87
2022/10/14 00:23:21;;;;;;;;;;;13.50;89.90;;;;;;5032626;28;20075;-87
2022/10/14 00:25:47;;;;;;;;;;;13.50;89.70;;;;;;5032640;28;20365;-87
2022/10/14 00:28:12;;;;;;;;;;;13.60;89.90;;;;;;5033155;28;20418;-87
2022/10/14 00:30:38;;;;;;;;;;;13.60;90.30;;;;;;5032313;28;19993;-87
2022/10/14 00:33:03;;;;;;;;;;;13.50;89.20;;;;;;5032546;28;20307;-87
2022/10/14 00:35:31;;;;;;;;;;;13.30;88.30;;;;;;5032526;28;20435;-87
2022/10/14 00:37:57;;;;;;;;;;;13.30;89.00;;;;;;5032525;28;19943;-87
2022/10/14 00:40:22;;;;;;;;;;;13.30;89.20;;;;;;5032235;28;19948;-87
2022/10/14 00:42:48;;;;;;;;;;;13.30;89.30;;;;;;5032223;28;20102;-87
2022/10/14 00:45:15;;;;;;;;;;;13.30;89.30;;;;;;5032426;28;20030;-86
2022/10/14 00:47:42;;;;;;;;;;;13.40;89.40;;;;;;5035494;28;20034;-87
2022/10/14 00:50:08;;;;;;;;;;;13.30;89.20;;;;;;5035937;28;19946;-87
2022/10/14 00:52:34;;;;;;;;;;;13.40;89.20;;;;;;5035701;28;20386;-87
2022/10/14 00:55:02;;;;;;;;;;;13.30;88.00;;;;;;5018104;28;19955;-86
2022/10/14 00:57:28;;;;;;;;;;;13.10;87.80;;;;;;5035775;28;19941;-87
2022/10/14 00:59:57;;;;;;;;;;;13.10;88.10;;;;;;5035458;28;19952;-87
2022/10/14 01:02:23;;;;;;;;;;;13.10;88.40;;;;;;5035656;28;19996;-86
2022/10/14 01:04:48;;;;;;;;;;;13.10;89.10;;;;;;5035634;28;19941;-87
2022/10/14 01:07:14;;;;;;;;;;;13.20;89.80;;;;;;5035611;28;20286;-86
2022/10/14 01:09:58;;;;;;;;;;;13.20;89.60;;;;;;5035358;28;19951;-87
2022/10/14 01:12:29;;;;;;;;;;;13.10;89.20;;;;;;5035313;28;19950;-87
2022/10/14 01:15:13;;;;;;;;;;;12.90;89.50;;;;;;5035456;28;19993;-87
2022/10/14 01:18:01;;;;;;;;;;;12.90;90.20;;;;;;5035451;28;19948;-87
2022/10/14 01:20:45;;;;;;;;;;;12.90;90.40;;;;;;5035167;28;19950;-87
2022/10/14 01:23:18;;;;;;;;;;;13.10;90.40;;;;;;5034895;28;19980;-87
2022/10/14 01:25:56;;;;;;;;;;;13.00;89.90;;;;;;5035290;28;20417;-87
2022/10/14 01:28:34;;;;;;;;;;;13.00;89.90;;;;;;5035244;28;19964;-87
2022/10/14 01:31:02;;;;;;;;;;;13.00;89.90;;;;;;5034935;28;19954;-86
2022/10/14 01:33:32;;;;;;;;;;;12.90;89.90;;;;;;5035144;28;19943;-87
2022/10/14 01:36:07;;;;;;;;;;;13.00;90.20;;;;;;5035361;28;19944;-87
2022/10/14 01:38:33;;;;;;;;;;;12.90;89.90;;;;;;5035046;28;19947;-87
2022/10/14 01:41:18;;;;;;;;;;;13.00;89.90;;;;;;5034690;28;20336;-87
2022/10/14 01:43:45;;;;;;;;;;;13.00;89.70;;;;;;5034347;28;20014;-87
2022/10/14 01:46:11;;;;;;;;;;;13.00;89.60;;;;;;5034850;28;20297;-87
2022/10/14 01:48:39;;;;;;;;;;;13.00;89.30;;;;;;5034858;28;19941;-87
2022/10/14 01:51:07;;;;;;;;;;;12.90;89.00;;;;;;5034156;28;19959;-87
2022/10/14 01:53:36;;;;;;;;;;;12.90;88.90;;;;;;5034749;28;19995;-87
2022/10/14 01:56:03;;;;;;;;;;;12.90;88.70;;;;;;5034422;28;19987;-87
2022/10/14 01:58:30;;;;;;;;;;;12.90;88.80;;;;;;5034514;28;19978;-86
2022/10/14 02:00:56;;;;;;;;;;;12.90;89.00;;;;;;5034575;28;20007;-86
2022/10/14 02:03:22;;;;;;;;;;;12.90;88.90;;;;;;5034482;28;19989;-86
2022/10/14 02:05:54;;;;;;;;;;;12.80;88.80;;;;;;5034542;28;19988;-86
2022/10/14 02:08:25;;;;;;;;;;;12.70;88.80;;;;;;5034148;28;19950;-86
2022/10/14 02:10:54;;;;;;;;;;;12.60;89.00;;;;;;5034402;28;19939;-86
2022/10/14 02:13:31;;;;;;;;;;;12.40;88.70;;;;;;5034407;28;19947;-86
2022/10/14 02:16:05;;;;;;;;;;;12.30;88.00;;;;;;5034294;28;20306;-86
2022/10/14 02:18:30;;;;;;;;;;;12.30;88.50;;;;;;5033826;28;19947;-86
2022/10/14 02:20:58;;;;;;;;;;;12.30;88.70;;;;;;5034022;28;20355;-87
2022/10/14 02:23:31;;;;;;;;;;;12.30;89.50;;;;;;5034069;28;19972;-86
2022/10/14 02:25:58;;;;;;;;;;;12.30;88.40;;;;;;5033836;28;19970;-86
2022/10/14 02:28:26;;;;;;;;;;;12.30;88.60;;;;;;5034086;28;19970;-86
2022/10/14 02:30:56;;;;;;;;;;;12.30;88.00;;;;;;5034294;28;19945;-87
2022/10/14 02:33:23;;;;;;;;;;;12.20;87.70;;;;;;5033960;28;20442;-86
2022/10/14 02:35:49;;;;;;;;;;;12.10;87.60;;;;;;5033725;28;19955;-86
2022/10/14 02:38:16;;;;;;;;;;;12.10;87.40;;;;;;5033883;28;19941;-86
2022/10/14 02:40:44;;;;;;;;;;;12.00;86.70;;;;;;5033813;28;19941;-86
2022/10/14 02:43:10;;;;;;;;;;;12.00;86.70;;;;;;5033763;28;19966;-86
2022/10/14 02:45:36;;;;;;;;;;;12.10;87.30;;;;;;5033496;28;19944;-86
2022/10/14 02:48:02;;;;;;;;;;;12.10;87.50;;;;;;5015942;28;19943;-86
2022/10/14 02:50:28;;;;;;;;;;;12.10;87.40;;;;;;5033615;28;20374;-86
2022/10/14 02:52:53;;;;;;;;;;;12.10;87.50;;;;;;5033512;28;19951;-86
2022/10/14 02:55:19;;;;;;;;;;;12.00;86.90;;;;;;5033140;28;19953;-86
2022/10/14 02:57:45;;;;;;;;;;;11.90;87.00;;;;;;5033523;28;19973;-87
2022/10/14 03:00:11;;;;;;;;;;;11.90;87.70;;;;;;5033530;28;19947;-86
2022/10/14 03:02:36;;;;;;;;;;;11.90;88.30;;;;;;5033681;28;19959;-86
2022/10/14 03:05:02;;;;;;;;;;;11.90;88.90;;;;;;5033212;28;19942;-86
2022/10/14 03:07:27;;;;;;;;;;;11.90;89.00;;;;;;5015730;28;20205;-86
2022/10/14 03:09:53;;;;;;;;;;;11.80;89.80;;;;;;5032912;28;19963;-86
2022/10/14 03:12:18;;;;;;;;;;;11.80;90.00;;;;;;5033396;28;20029;-86
2022/10/14 03:14:44;;;;;;;;;;;11.80;90.30;;;;;;5032989;28;19951;-86
2022/10/14 03:17:10;;;;;;;;;;;11.80;90.60;;;;;;5033313;28;19945;-86
2022/10/14 03:19:36;;;;;;;;;;;11.70;91.10;;;;;;5033324;28;20025;-86
2022/10/14 03:22:01;;;;;;;;;;;11.70;91.50;;;;;;5033126;28;20455;-87
2022/10/14 03:24:27;;;;;;;;;;;11.60;91.90;;;;;;5033148;28;19966;-87
2022/10/14 03:26:52;;;;;;;;;;;11.70;92.00;;;;;;5033186;28;20404;-86
2022/10/14 03:29:18;;;;;;;;;;;11.70;92.50;;;;;;5033171;28;20292;-87
2022/10/14 03:31:44;;;;;;;;;;;11.70;92.30;;;;;;5033096;28;19941;-86
2022/10/14 03:34:09;;;;;;;;;;;11.70;92.30;;;;;;5032790;28;20361;-87
2022/10/14 03:36:35;;;;;;;;;;;11.80;92.20;;;;;;5033055;28;20308;-86
2022/10/14 03:39:00;;;;;;;;;;;11.80;91.80;;;;;;5033057;28;19941;-86
2022/10/14 03:41:26;;;;;;;;;;;11.80;91.80;;;;;;5033033;28;20357;-87
2022/10/14 03:43:51;;;;;;;;;;;11.80;91.20;;;;;;5032712;28;19965;-87
2022/10/14 03:46:17;;;;;;;;;;;11.80;91.10;;;;;;5032990;28;20314;-86
2022/10/14 03:48:42;;;;;;;;;;;11.70;90.40;;;;;;5032977;28;20320;-86
2022/10/14 03:51:08;;;;;;;;;;;11.70;90.60;;;;;;5032774;28;19953;-86
2022/10/14 03:53:33;;;;;;;;;;;11.80;91.00;;;;;;5032618;28;21576;-86
2022/10/14 03:55:59;;;;;;;;;;;11.80;90.80;;;;;;5032908;28;19948;-86
2022/10/14 03:58:24;;;;;;;;;;;11.80;90.70;;;;;;5032868;28;20430;-86
2022/10/14 04:00:50;;;;;;;;;;;11.80;90.60;;;;;;5032832;28;20420;-86
2022/10/14 04:03:16;;;;;;;;;;;11.70;90.70;;;;;;5032644;28;20341;-86
2022/10/14 04:05:41;;;;;;;;;;;11.70;90.70;;;;;;5032347;28;20308;-86
2022/10/14 04:08:07;;;;;;;;;;;11.70;90.90;;;;;;5032538;28;20032;-86
2022/10/14 04:10:32;;;;;;;;;;;11.80;91.00;;;;;;5032772;28;19944;-86
2022/10/14 04:12:58;;;;;;;;;;;11.70;90.70;;;;;;5032766;28;20415;-86
2022/10/14 04:15:23;;;;;;;;;;;11.70;91.20;;;;;;5032543;28;20378;-86
2022/10/14 04:17:49;;;;;;;;;;;11.80;91.30;;;;;;5032990;28;20446;-87
2022/10/14 04:20:15;;;;;;;;;;;11.60;91.20;;;;;;5032671;28;20431;-86
2022/10/14 04:22:40;;;;;;;;;;;11.60;91.70;;;;;;5035462;28;20437;-86
2022/10/14 04:25:06;;;;;;;;;;;11.60;91.10;;;;;;5036169;28;19983;-86
2022/10/14 04:27:32;;;;;;;;;;;11.60;90.20;;;;;;5036387;28;19941;-86
2022/10/14 04:29:58;;;;;;;;;;;11.40;89.70;;;;;;5036340;28;19950;-86
2022/10/14 04:32:23;;;;;;;;;;;11.40;89.70;;;;;;5036236;28;19948;-87
2022/10/14 04:34:49;;;;;;;;;;;11.40;89.90;;;;;;5036055;28;19949;-86
2022/10/14 04:37:14;;;;;;;;;;;11.40;90.10;;;;;;5036194;28;20399;-87
2022/10/14 04:39:40;;;;;;;;;;;11.40;90.40;;;;;;5036109;28;19944;-86
2022/10/14 04:42:05;;;;;;;;;;;11.40;91.00;;;;;;5036111;28;20411;-87
2022/10/14 04:44:31;;;;;;;;;;;11.30;90.80;;;;;;5035703;28;20330;-86
2022/10/14 04:46:56;;;;;;;;;;;11.30;90.90;;;;;;5036009;28;20098;-86
2022/10/14 04:49:22;;;;;;;;;;;11.20;90.60;;;;;;5035982;28;20605;-87
2022/10/14 04:51:47;;;;;;;;;;;11.20;90.50;;;;;;5035753;28;20475;-86
2022/10/14 04:54:13;;;;;;;;;;;11.10;90.40;;;;;;5033504;28;20474;-86
2022/10/14 04:56:39;;;;;;;;;;;11.10;90.50;;;;;;5034992;28;20424;-86
2022/10/14 04:59:04;;;;;;;;;;;10.90;91.10;;;;;;5034871;28;20391;-86
2022/10/14 05:01:30;;;;;;;;;;;10.90;91.90;;;;;;5034956;28;20438;-86
2022/10/14 05:03:55;;;;;;;;;;;10.90;91.60;;;;;;5035056;28;19959;-86
2022/10/14 05:06:21;;;;;;;;;;;10.90;92.40;;;;;;5035638;28;20043;-86
2022/10/14 05:08:46;;;;;;;;;;;10.90;91.90;;;;;;5035636;28;19990;-86
2022/10/14 05:11:12;;;;;;;;;;;10.90;91.50;;;;;;5034729;28;20319;-86
2022/10/14 05:13:38;;;;;;;;;;;11.00;91.70;;;;;;5035343;28;20009;-86
2022/10/14 05:16:03;;;;;;;;;;;11.10;91.70;;;;;;5034086;28;20424;-86
2022/10/14 05:18:29;;;;;;;;;;;11.00;91.40;;;;;;5034483;28;20319;-86
2022/10/14 05:20:56;;;;;;;;;;;11.00;91.30;;;;;;5033194;28;19974;-87
2022/10/14 05:23:22;;;;;;;;;;;11.00;91.20;;;;;;5034206;28;19970;-86
2022/10/14 05:25:47;;;;;;;;;;;10.90;91.70;;;;;;5034555;28;19960;-86
2022/10/14 05:28:13;;;;;;;;;;;10.90;91.90;;;;;;5035057;28;19946;-86
2022/10/14 05:30:40;;;;;;;;;;;10.90;92.20;;;;;;5034874;28;20450;-85
2022/10/14 05:33:06;;;;;;;;;;;11.10;92.70;;;;;;5030934;28;19947;-85
2022/10/14 05:35:32;;;;;;;;;;;11.70;92.80;;;;;;5032619;28;20038;-85
2022/10/14 05:37:58;;;;;;;;;;;12.10;90.10;;;;;;5033350;28;20088;-86
2022/10/14 05:40:23;;;;;;;;;;;12.40;90.10;;;;;;5035109;28;19941;-86
2022/10/14 05:42:49;;;;;;;;;;;12.50;89.00;;;;;;5032390;28;20414;-86
2022/10/14 05:45:15;;;;;;;;;;;12.70;87.20;;;;;;5030735;28;20044;-86
2022/10/14 05:47:43;;;;;;;;;;;13.10;87.10;;;;;;5034260;28;20298;-86
2022/10/14 05:50:09;;;;;;;;;;;13.30;84.80;;;;;;5033405;28;19945;-86
2022/10/14 05:52:34;;;;;;;;;;;13.10;84.50;;;;;;5033726;28;19959;-85
2022/10/14 05:55:00;;;;;;;;;;;12.80;85.70;;;;;;5032139;28;19960;-85
2022/10/14 05:57:26;;;;;;;;;;;13.40;85.00;;;;;;5031604;28;20438;-86
2022/10/14 05:59:52;;;;;;;;;;;13.40;84.30;;;;;;5033691;28;19951;-85
2022/10/14 06:02:18;;;;;;;;;;;13.30;85.00;;;;;;5032031;28;20357;-85
2022/10/14 06:04:43;;;;;;;;;;;13.30;86.20;;;;;;5032911;28;19960;-85
2022/10/14 06:07:09;;;;;;;;;;;13.20;87.10;;;;;;5033432;28;19955;-86
2022/10/14 06:09:35;;;;;;;;;;;13.10;86.40;;;;;;5033872;28;20153;-85
2022/10/14 06:12:01;;;;;;;;;;;13.00;85.50;;;;;;5031338;28;19954;-86
2022/10/14 06:14:27;;;;;;;;;;;12.90;86.20;;;;;;5031516;28;19950;-85
2022/10/14 06:16:52;;;;;;;;;;;13.10;87.30;;;;;;5032493;28;19975;-86
2022/10/14 06:19:18;;;;;;;;;;;13.30;87.60;;;;;;5015583;28;20461;-86
2022/10/14 06:21:43;;;;;;;;;;;13.30;87.90;;;;;;5031613;28;19999;-86
2022/10/14 06:24:09;;;;;;;;;;;13.50;87.00;;;;;;5032924;28;20472;-86
2022/10/14 06:26:35;;;;;;;;;;;13.50;86.50;;;;;;5033119;28;19954;-86
2022/10/14 06:29:00;;;;;;;;;;;13.30;86.80;;;;;;5032983;28;19997;-86
2022/10/14 06:31:26;;;;;;;;;;;13.30;87.40;;;;;;5030758;28;20319;-85
2022/10/14 06:33:52;;;;;;;;;;;13.40;85.40;;;;;;5033544;28;20001;-86
2022/10/14 06:36:17;;;;;;;;;;;13.40;84.70;;;;;;5010733;28;20030;-86
2022/10/14 06:38:43;;;;;;;;;;;13.60;84.20;;;;;;5024474;28;19945;-87
2022/10/14 06:41:09;;;;;;;;;;;13.60;83.70;;;;;;5031732;28;19951;-86
2022/10/14 06:43:34;;;;;;;;;;;13.70;83.50;;;;;;5029103;28;19960;-86
2022/10/14 06:46:00;;;;;;;;;;;13.90;83.50;;;;;;5032185;28;19948;-86
2022/10/14 06:48:26;;;;;;;;;;;13.90;82.90;;;;;;5025219;28;19953;-86
2022/10/14 06:50:52;;;;;;;;;;;13.90;83.20;;;;;;5032347;28;19966;-86
2022/10/14 06:53:17;;;;;;;;;;;13.90;83.40;;;;;;5026818;28;19938;-86
2022/10/14 06:55:43;;;;;;;;;;;13.90;83.60;;;;;;5031797;28;19952;-86
2022/10/14 06:58:09;;;;;;;;;;;13.90;84.00;;;;;;5030478;28;20086;-86
2022/10/14 07:00:36;;;;;;;;;;;13.80;84.80;;;;;;5027934;28;19941;-86
2022/10/14 07:03:02;;;;;;;;;;;13.70;85.50;;;;;;5030081;28;20314;-86
2022/10/14 07:05:27;;;;;;;;;;;13.60;86.30;;;;;;5033516;28;20002;-86
2022/10/14 07:07:53;;;;;;;;;;;13.50;86.50;;;;;;5032855;28;19983;-86
2022/10/14 07:10:18;;;;;;;;;;;13.50;86.80;;;;;;5027297;28;19943;-86
2022/10/14 07:12:44;;;;;;;;;;;13.60;87.40;;;;;;5029052;28;19948;-86
2022/10/14 07:15:09;;;;;;;;;;;13.70;87.80;;;;;;5029965;28;19947;-86
2022/10/14 07:17:35;;;;;;;;;;;14.10;87.60;;;;;;5028127;28;19952;-86
2022/10/14 07:20:00;;;;;;;;;;;14.10;85.80;;;;;;5031813;28;19951;-86
2022/10/14 07:22:26;;;;;;;;;;;14.30;85.10;;;;;;5050427;22;19965;-86
2022/10/14 07:24:51;;;;;;;;;;;14.40;84.40;;;;;;5038567;28;19945;-86
2022/10/14 07:27:19;;;;;;;;;;;14.60;83.70;;;;;;5046326;28;19949;-86
2022/10/14 07:29:45;;;;;;;;;;;14.50;83.80;;;;;;5042221;28;19951;-86
2022/10/14 07:32:10;;;;;;;;;;;14.70;84.40;;;;;;5048923;28;19950;-86
2022/10/14 07:34:36;;;;;;;;;;;14.90;84.60;;;;;;5049020;28;19959;-86
2022/10/14 07:37:01;;;;;;;;;;;15.20;84.50;;;;;;5064768;28;20552;-87
2022/10/14 07:39:27;;;;;;;;;;;15.50;83.70;;;;;;5053956;28;19944;-86
2022/10/14 07:41:53;;;;;;;;;;;15.70;83.10;;;;;;5049449;28;19947;-86
2022/10/14 07:44:19;;;;;;;;;;;15.80;82.90;;;;;;5050145;28;19967;-86
2022/10/14 07:46:45;;;;;;;;;;;15.90;81.60;;;;;;5047999;28;20341;-87
2022/10/14 07:49:14;;;;;;;;;;;16.10;81.50;;;;;;5050563;28;20001;-86
2022/10/14 07:51:40;;;;;;;;;;;16.10;82.20;;;;;;5045457;28;19955;-87
2022/10/14 07:54:08;;;;;;;;;;;16.30;82.40;;;;;;5038461;28;20416;-86
2022/10/14 07:56:34;;;;;;;;;;;16.50;81.20;;;;;;5044602;28;20406;-86
2022/10/14 07:59:00;;;;;;;;;;;16.60;80.70;;;;;;5039845;28;19946;-87
2022/10/14 08:01:26;;;;;;;;;;;16.60;81.90;;;;;;5027406;28;20441;-87
2022/10/14 08:03:52;;;;;;;;;;;16.60;81.00;;;;;;5037872;28;20014;-87
2022/10/14 08:06:18;;;;;;;;;;;16.70;80.70;;;;;;5039721;28;19946;-87
2022/10/14 08:08:43;;;;;;;;;;;16.80;80.80;;;;;;5038945;28;19960;-86
2022/10/14 08:11:13;;;;;;;;;;;17.00;79.20;;;;;;5050059;28;20574;-86
2022/10/14 08:13:39;;;;;;;;;;;17.30;77.50;;;;;;5038688;28;19997;-86
2022/10/14 08:16:12;;;;;;;;;;;17.30;77.40;;;;;;5048991;28;20406;-86
2022/10/14 08:18:37;;;;;;;;;;;17.30;77.80;;;;;;5053934;28;19950;-86
2022/10/14 08:21:03;;;;;;;;;;;17.20;77.40;;;;;;5043782;28;20288;-87
2022/10/14 08:23:29;;;;;;;;;;;17.30;77.50;;;;;;5050895;28;20499;-87
2022/10/14 08:25:54;;;;;;;;;;;17.50;75.60;;;;;;5040483;28;19955;-87
2022/10/14 08:28:20;;;;;;;;;;;17.50;75.50;;;;;;5046669;28;20447;-87
2022/10/14 08:30:47;;;;;;;;;;;17.80;74.00;;;;;;5040335;28;20412;-86
2022/10/14 08:33:13;;;;;;;;;;;18.20;73.10;;;;;;5037373;28;19947;-87
2022/10/14 08:35:38;;;;;;;;;;;18.30;72.70;;;;;;5035245;28;20428;-86
2022/10/14 08:38:04;;;;;;;;;;;18.30;72.70;;;;;;5045791;28;19951;-87
2022/10/14 08:40:32;;;;;;;;;;;18.40;69.80;;;;;;5054297;28;19941;-86
2022/10/14 08:43:06;;;;;;;;;;;18.40;70.00;;;;;;5039366;28;19960;-87
2022/10/14 08:45:34;;;;;;;;;;;18.50;70.90;;;;;;5040970;28;19942;-87
2022/10/14 08:48:01;;;;;;;;;;;18.60;69.50;;;;;;5055925;28;19944;-86
2022/10/14 08:50:32;;;;;;;;;;;18.70;69.40;;;;;;5044375;28;20018;-87
2022/10/14 08:53:01;;;;;;;;;;;18.70;69.60;;;;;;5050152;28;19943;-87
2022/10/14 08:55:31;;;;;;;;;;;18.80;69.30;;;;;;5045530;28;20307;-87
2022/10/14 08:57:59;;;;;;;;;;;18.90;69.10;;;;;;5037287;28;19943;-87
2022/10/14 09:00:25;;;;;;;;;;;19.00;69.00;;;;;;5032743;28;20733;-87
2022/10/14 09:02:50;;;;;;;;;;;19.30;66.40;;;;;;5037438;28;19964;-87
2022/10/14 09:05:17;;;;;;;;;;;19.50;67.60;;;;;;5047086;28;19952;-87
2022/10/14 09:07:43;;;;;;;;;;;19.60;66.50;;;;;;5042796;28;19945;-87
2022/10/14 09:10:17;;;;;;;;;;;19.70;65.90;;;;;;5043931;28;19956;-87
2022/10/14 09:12:43;;;;;;;;;;;19.80;64.40;;;;;;5040488;28;19953;-87
2022/10/14 09:15:17;;;;;;;;;;;19.80;65.30;;;;;;5045363;28;19946;-87
2022/10/14 09:17:47;;;;;;;;;;;19.80;66.50;;;;;;5034988;28;20005;-87
2022/10/14 09:20:17;;;;;;;;;;;19.70;65.00;;;;;;5043259;28;19946;-87
2022/10/14 09:22:45;;;;;;;;;;;19.60;63.90;;;;;;5042387;28;19973;-87
2022/10/14 09:25:14;;;;;;;;;;;19.40;64.90;;;;;;5052694;28;20038;-86
2022/10/14 09:27:39;;;;;;;;;;;19.40;64.90;;;;;;5040017;28;19955;-87
2022/10/14 09:30:09;;;;;;;;;;;19.60;64.20;;;;;;5043209;28;20032;-86
2022/10/14 09:32:38;;;;;;;;;;;19.80;63.40;;;;;;5052308;28;20040;-87
2022/10/14 09:35:11;;;;;;;;;;;19.90;64.30;;;;;;5042558;28;19945;-86
2022/10/14 09:37:38;;;;;;;;;;;20.00;64.40;;;;;;5036679;28;19949;-87
2022/10/14 09:40:09;;;;;;;;;;;20.20;62.60;;;;;;5038116;28;19971;-87
2022/10/14 09:42:43;;;;;;;;;;;20.40;62.10;;;;;;5038733;28;20057;-87
2022/10/14 09:45:13;;;;;;;;;;;20.50;63.20;;;;;;5039304;28;19949;-87
2022/10/14 09:47:43;;;;;;;;;;;20.50;63.00;;;;;;5046421;28;19970;-87
2022/10/14 09:50:09;;;;;;;;;;;20.50;61.30;;;;;;5041525;28;19952;-87
2022/10/14 09:52:36;;;;;;;;;;;20.60;62.90;;;;;;5049690;28;19959;-87
2022/10/14 09:55:17;;;;;;;;;;;20.70;63.30;;;;;;5042157;28;19964;-87
2022/10/14 09:57:43;;;;;;;;;;;20.80;62.10;;;;;;5038012;28;20420;-87
2022/10/14 10:00:23;;;;;;;;;;;21.00;61.30;;;;;;5035318;28;19952;-87
2022/10/14 10:02:50;;;;;;;;;;;21.30;59.60;;;;;;5038842;28;20047;-87
2022/10/14 10:05:27;;;;;;;;;;;21.40;57.10;;;;;;5043585;28;19981;-87
2022/10/14 10:08:00;;;;;;;;;;;21.40;58.00;;;;;;5053996;28;20044;-87
2022/10/14 10:10:26;;;;;;;;;;;21.60;56.40;;;;;;5032509;28;19946;-87
2022/10/14 10:12:51;;;;;;;;;;;21.60;58.80;;;;;;5054465;28;20037;-87
2022/10/14 10:15:18;;;;;;;;;;;21.80;57.30;;;;;;5053228;28;20017;-87
2022/10/14 10:17:46;;;;;;;;;;;21.90;56.50;;;;;;5054217;28;20407;-87
2022/10/14 10:20:17;;;;;;;;;;;21.90;58.20;;;;;;5054101;28;19953;-87
2022/10/14 10:22:43;;;;;;;;;;;21.80;56.60;;;;;;5053865;28;19957;-87
2022/10/14 10:25:09;;;;;;;;;;;21.90;55.40;;;;;;5051619;28;19946;-86
2022/10/14 10:27:35;;;;;;;;;;;21.60;56.10;;;;;;5034144;28;20465;-86
2022/10/14 10:30:19;;;;;;;;;;;21.30;56.70;;;;;;5034106;28;19946;-87
2022/10/14 10:33:03;;;;;;;;;;;21.10;57.90;;;;;;5034083;28;19935;-86
2022/10/14 10:35:34;;;;;;;;;;;21.00;58.00;;;;;;5038398;28;19947;-87
2022/10/14 10:38:08;;;;;;;;;;;21.30;56.80;;;;;;5054188;28;19989;-87
2022/10/14 10:40:40;;;;;;;;;;;21.40;56.80;;;;;;5054093;28;19979;-87
2022/10/14 10:43:20;;;;;;;;;;;21.80;57.50;;;;;;5053920;28;19968;-87
2022/10/14 10:46:12;;;;;;;;;;;22.10;57.60;;;;;;5046848;28;20312;-87
2022/10/14 10:48:40;;;;;;;;;;;22.30;55.60;;;;;;5017872;28;20394;-87
2022/10/14 10:51:12;;;;;;;;;;;22.60;54.20;;;;;;5033549;28;20449;-87
2022/10/14 10:53:54;;;;;;;;;;;22.80;54.30;;;;;;5046591;28;19955;-87
2022/10/14 10:56:19;;;;;;;;;;;23.00;53.00;;;;;;5053562;28;19949;-87
2022/10/14 10:58:57;;;;;;;;;;;23.20;53.50;;;;;;5053483;28;19944;-87
2022/10/14 11:01:37;;;;;;;;;;;23.30;53.30;;;;;;5053376;28;20331;-87
2022/10/14 11:04:15;;;;;;;;;;;23.70;51.90;;;;;;5019077;28;19963;-87
2022/10/14 11:12:37;;;;;;;;;;;23.50;51.90;;;;;;5036112;28;19996;-87
2022/10/14 11:15:03;;;;;;;;;;;23.80;52.40;;;;;;5053263;28;19946;-87
2022/10/14 11:17:31;;;;;;;;;;;23.80;49.40;;;;;;5052984;28;19938;-87
2022/10/14 11:20:04;;;;;;;;;;;23.80;49.20;;;;;;5053015;28;19949;-87
2022/10/14 11:22:49;;;;;;;;;;;24.00;50.30;;;;;;5052323;28;19971;-87
2022/10/14 11:25:21;;;;;;;;;;;24.30;49.40;;;;;;5052574;28;20017;-87
2022/10/14 11:28:07;;;;;;;;;;;24.60;49.00;;;;;;5044082;28;20522;-87
2022/10/14 11:30:43;;;;;;;;;;;24.80;48.60;;;;;;5041334;28;20002;-87
2022/10/14 11:33:21;;;;;;;;;;;25.30;45.70;;;;;;5043672;28;20001;-87
2022/10/14 11:35:56;;;;;;;;;;;25.60;45.90;;;;;;5049849;28;20324;-87
2022/10/14 11:38:36;;;;;;;;;;;25.40;44.70;;;;;;5039375;28;20471;-87
2022/10/14 11:41:17;;;;;;;;;;;24.80;45.20;;;;;;5048632;28;20010;-87
2022/10/14 11:44:03;;;;;;;;;;;24.20;46.70;;;;;;5040075;28;20053;-86
2022/10/14 11:46:32;;;;;;;;;;;23.90;47.80;;;;;;5029134;28;19942;-87
2022/10/14 11:49:04;;;;;;;;;;;23.90;48.10;;;;;;5046690;28;20027;-87
2022/10/14 11:51:29;;;;;;;;;;;23.80;47.70;;;;;;5033471;28;20011;-87
2022/10/14 11:53:58;;;;;;;;;;;23.80;48.00;;;;;;5037316;28;19977;-87
2022/10/14 11:56:31;;;;;;;;;;;23.90;47.90;;;;;;5046016;28;20037;-87
2022/10/14 11:59:02;;;;;;;;;;;24.00;48.10;;;;;;5039755;28;20379;-87
2022/10/14 12:01:29;;;;;;;;;;;24.00;47.80;;;;;;5042628;28;20001;-87
2022/10/14 12:03:58;;;;;;;;;;;24.30;47.20;;;;;;5052621;28;19970;-87
2022/10/14 12:06:33;;;;;;;;;;;24.60;46.90;;;;;;5036965;28;19943;-87
2022/10/14 12:09:05;;;;;;;;;;;24.80;46.80;;;;;;5052743;28;19941;-87
2022/10/14 12:11:42;;;;;;;;;;;25.10;45.20;;;;;;5037638;28;20003;-87
2022/10/14 12:14:16;;;;;;;;;;;25.40;45.30;;;;;;5042944;28;19946;-87
2022/10/14 12:16:43;;;;;;;;;;;25.80;43.30;;;;;;5039142;28;19996;-87
2022/10/14 12:19:10;;;;;;;;;;;26.20;42.80;;;;;;5043998;28;19974;-87
2022/10/14 12:21:48;;;;;;;;;;;26.40;43.70;;;;;;5051563;28;19981;-87
2022/10/14 12:24:18;;;;;;;;;;;26.90;42.70;;;;;;5051305;28;19969;-87
2022/10/14 12:26:43;;;;;;;;;;;27.40;40.90;;;;;;5048650;28;19951;-87
2022/10/14 12:29:12;;;;;;;;;;;27.80;39.90;;;;;;5044532;28;19953;-87
2022/10/14 12:31:38;;;;;;;;;;;27.60;40.20;;;;;;5036446;28;20021;-87
2022/10/14 12:34:09;;;;;;;;;;;27.60;40.10;;;;;;5033969;28;19940;-87
2022/10/14 12:36:35;;;;;;;;;;;27.60;39.60;;;;;;5050190;28;19946;-87
2022/10/14 12:39:16;;;;;;;;;;;27.40;39.90;;;;;;5049859;28;19946;-87
2022/10/14 12:41:46;;;;;;;;;;;27.20;41.20;;;;;;5047117;28;20014;-87
2022/10/14 12:44:13;;;;;;;;;;;27.30;40.60;;;;;;5047475;28;19966;-87
2022/10/14 12:46:43;;;;;;;;;;;27.50;40.20;;;;;;5048148;28;19952;-87
2022/10/14 12:49:15;;;;;;;;;;;28.40;40.80;;;;;;5026793;28;20354;-87
2022/10/14 12:52:01;;;;;;;;;;;29.20;36.90;;;;;;5049490;28;19958;-87
2022/10/14 12:54:27;;;;;;;;;;;28.80;37.20;;;;;;5047438;28;20415;-87
2022/10/14 12:57:16;;;;;;;;;;;28.30;37.70;;;;;;5042466;28;20015;-87
2022/10/14 12:59:47;;;;;;;;;;;27.90;40.10;;;;;;5045071;28;20003;-87
2022/10/14 13:02:32;;;;;;;;;;;28.30;38.70;;;;;;5031245;28;19951;-87
2022/10/14 13:05:00;;;;;;;;;;;28.20;38.70;;;;;;5039512;28;20028;-87
2022/10/14 13:07:25;;;;;;;;;;;27.60;40.00;;;;;;5051035;28;20308;-89
2022/10/14 13:09:58;;;;;;;;;;;27.00;40.50;;;;;;5047809;28;20460;-88
2022/10/14 13:12:23;;;;;;;;;;;26.60;41.60;;;;;;5042736;28;19956;-87
2022/10/14 13:15:24;;;;;;;;;;;26.30;42.30;;;;;;5042220;28;19944;-88
2022/10/14 13:17:50;;;;;;;;;;;26.60;40.90;;;;;;4950016;29;19944;-87
2022/10/14 13:20:34;;;;;;;;;;;26.80;41.10;;;;;;5025709;28;19948;-87
2022/10/14 13:23:20;;;;;;;;;;;26.60;41.10;;;;;;5041480;28;19986;-88
2022/10/14 13:25:48;;;;;;;;;;;25.80;42.60;;;;;;5052177;28;19950;-86
2022/10/14 13:28:22;;;;;;;;;;;25.50;43.20;;;;;;5046219;28;19952;-86
2022/10/14 13:30:52;;;;;;;;;;;25.20;43.70;;;;;;5044944;28;20408;-86
2022/10/14 13:33:21;;;;;;;;;;;25.60;43.50;;;;;;5042234;28;19949;-87
2022/10/14 13:35:52;;;;;;;;;;;25.70;44.60;;;;;;5048504;28;19947;-87
2022/10/14 13:38:20;;;;;;;;;;;25.60;45.60;;;;;;5050375;28;19950;-87
2022/10/14 13:40:47;;;;;;;;;;;25.40;44.50;;;;;;5026036;28;19947;-87
2022/10/14 13:43:32;;;;;;;;;;;25.20;45.10;;;;;;5046149;28;19968;-87
2022/10/14 13:46:03;;;;;;;;;;;25.20;46.80;;;;;;5050434;28;19951;-87
2022/10/14 13:48:30;;;;;;;;;;;25.00;47.20;;;;;;5047649;28;19948;-87
2022/10/14 13:51:13;;;;;;;;;;;24.40;45.60;;;;;;5038371;28;19966;-87
2022/10/14 13:53:52;;;;;;;;;;;24.20;47.40;;;;;;5046298;28;19952;-87
2022/10/14 13:56:22;;;;;;;;;;;24.30;46.50;;;;;;5042951;28;19946;-87
2022/10/14 13:58:48;;;;;;;;;;;24.50;45.80;;;;;;5036634;28;20359;-87
2022/10/14 14:01:15;;;;;;;;;;;24.60;46.50;;;;;;5040750;28;19956;-88
2022/10/14 14:03:42;;;;;;;;;;;24.70;47.10;;;;;;5050214;28;19958;-87
2022/10/14 14:06:15;;;;;;;;;;;24.50;46.80;;;;;;5047295;28;20010;-87
2022/10/14 14:08:46;;;;;;;;;;;24.30;47.70;;;;;;5048525;28;19943;-87
2022/10/14 14:11:19;;;;;;;;;;;24.30;47.40;;;;;;5043048;28;20381;-87
2022/10/14 14:13:47;;;;;;;;;;;24.40;48.10;;;;;;5047780;28;19942;-87
2022/10/14 14:16:20;;;;;;;;;;;24.00;49.50;;;;;;5044597;28;19948;-87
2022/10/14 14:18:47;;;;;;;;;;;24.00;49.30;;;;;;5050922;28;20040;-87
2022/10/14 14:21:12;;;;;;;;;;;23.80;50.70;;;;;;5039656;28;20339;-87
2022/10/14 14:24:00;;;;;;;;;;;23.80;51.00;;;;;;5048975;28;19963;-87
2022/10/14 14:26:35;;;;;;;;;;;23.70;50.80;;;;;;5038897;28;20039;-87
2022/10/14 14:29:13;;;;;;;;;;;23.70;51.20;;;;;;5038518;28;19945;-87
2022/10/14 14:31:39;;;;;;;;;;;23.60;53.20;;;;;;5017850;28;19944;-87